Terminal Aerodrome Forecast
Issued by NWS Paducah, KY

Home | Current Version | Previous Version | Text Only | Print | Product List | Glossary On
Versions: 1 2 3 4 5 6 7 8 9 10 11 12 13 14 15 16 17 18 19 20
000
FTUS43 KPAH 232300
TAFPAH
TAF
KPAH 232335Z 2400/2424 36006KT P6SM SCT060 BKN200
     FM240300 29002KT P6SM SCT200
     FM241400 25008KT P6SM SKC=

USA.gov is the U.S. government's official web portal to all federal, state and local government web resources and services.